Time;durP1;ratioP1;P1;durP2;ratioP2;P2;SDS_P1;SDS_P2;PMS_P1;PMS_P2;Temp;Humidity;BMP_temperature;BMP_pressure;BME280_temperature;BME280_humidity;BME280_pressure;Samples;Min_cycle;Max_cycle;Signal;HPM_P1;HPM_P2
2021/04/07 00:01:35;;;;;;;16.33;11.60;;;;;;;7.49;55.07;98577.78;5011968;28;20042;-65
2021/04/07 00:04:01;;;;;;;16.92;11.98;;;;;;;7.49;55.69;98578.66;5008879;28;20022;-61
2021/04/07 00:06:26;;;;;;;15.95;11.73;;;;;;;7.23;55.83;98573.75;5009393;28;20045;-64
2021/04/07 00:08:52;;;;;;;20.95;12.25;;;;;;;7.12;56.07;98580.03;5009011;28;20105;-64
2021/04/07 00:11:18;;;;;;;17.52;11.60;;;;;;;7.15;56.15;98570.94;5009329;28;20108;-63
2021/04/07 00:13:46;;;;;;;18.92;12.43;;;;;;;6.62;56.40;98492.94;5009304;28;20100;-63
2021/04/07 00:16:11;;;;;;;16.15;11.60;;;;;;;7.29;55.91;98565.25;5009253;28;20034;-63
2021/04/07 00:18:37;;;;;;;20.83;13.13;;;;;;;7.20;56.07;98558.06;5009684;28;20095;-62
2021/04/07 00:21:03;;;;;;;17.00;11.82;;;;;;;7.06;56.09;98569.06;5009213;28;20061;-62
2021/04/07 00:23:29;;;;;;;16.98;12.27;;;;;;;7.06;56.22;98569.06;5011698;28;20045;-62
2021/04/07 00:25:54;;;;;;;20.48;13.35;;;;;;;6.87;56.35;98544.03;5011461;28;20034;-62
2021/04/07 00:28:21;;;;;;;15.77;12.25;;;;;;;7.03;56.46;98572.81;5011948;28;20136;-62
2021/04/07 00:30:48;;;;;;;16.77;11.90;;;;;;;6.89;56.81;98558.06;5011194;28;20038;-63
2021/04/07 00:33:15;;;;;;;17.52;12.32;;;;;;;6.97;56.54;98563.56;5011471;28;20129;-63
2021/04/07 00:35:41;;;;;;;19.63;12.40;;;;;;;6.89;57.11;98542.94;5011622;28;20040;-64
2021/04/07 00:38:06;;;;;;;18.48;12.50;;;;;;;6.89;56.91;98550.94;5011126;28;20042;-63
2021/04/07 00:40:33;;;;;;;17.08;12.52;;;;;;;6.84;57.02;98554.94;5010701;28;20393;-63
2021/04/07 00:43:00;;;;;;;20.52;12.95;;;;;;;6.74;57.04;98555.72;5020062;28;20501;-65
2021/04/07 00:45:26;;;;;;;20.38;13.40;;;;;;;6.65;57.25;98529.91;5009748;28;20119;-63
2021/04/07 00:47:54;;;;;;;22.55;12.98;;;;;;;6.70;57.84;98538.34;5011370;28;20517;-64
2021/04/07 00:50:22;;;;;;;18.23;12.38;;;;;;;6.59;57.54;98546.41;5011169;28;20033;-64
2021/04/07 00:52:48;;;;;;;19.17;12.65;;;;;;;6.63;58.09;98542.50;4991469;28;20044;-64
2021/04/07 00:55:20;;;;;;;16.63;11.75;;;;;;;6.60;57.79;98554.22;4991547;28;20126;-64
2021/04/07 00:57:46;;;;;;;17.83;12.35;;;;;;;6.07;58.03;98462.13;4991522;28;20061;-65
2021/04/07 01:00:13;;;;;;;17.65;12.90;;;;;;;6.84;57.77;98553.13;4991014;28;20038;-63
2021/04/07 01:02:39;;;;;;;18.92;12.80;;;;;;;6.79;57.63;98546.53;5007597;28;20429;-66
2021/04/07 01:05:06;;;;;;;21.92;12.50;;;;;;;6.69;57.22;98539.31;5007176;28;20123;-65
2021/04/07 01:07:33;;;;;;;21.10;13.00;;;;;;;6.71;57.49;98540.03;5008921;28;20543;-61
2021/04/07 01:09:59;;;;;;;18.38;13.85;;;;;;;6.70;57.20;98538.34;5008541;28;20410;-62
2021/04/07 01:12:24;;;;;;;19.48;12.77;;;;;;;6.77;56.94;98551.97;5008083;28;20030;-64
2021/04/07 01:14:50;;;;;;;16.60;13.13;;;;;;;6.41;57.34;98480.50;5008527;28;20061;-63
2021/04/07 01:17:18;;;;;;;17.88;12.45;;;;;;;6.79;57.15;98535.88;5008833;28;20044;-63
2021/04/07 01:19:44;;;;;;;21.48;13.73;;;;;;;6.98;56.54;98525.31;5008509;28;20437;-63
2021/04/07 01:22:09;;;;;;;17.35;12.40;;;;;;;7.05;56.31;98533.63;5007039;28;20304;-63
2021/04/07 01:24:36;;;;;;;20.48;13.65;;;;;;;6.93;56.38;98532.84;5010172;28;20480;-63
2021/04/07 01:27:02;;;;;;;20.33;13.10;;;;;;;6.89;56.46;98531.44;5010579;28;20056;-64
2021/04/07 01:29:28;;;;;;;18.38;13.00;;;;;;;6.87;56.75;98536.06;5010464;28;20426;-62
2021/04/07 01:31:55;;;;;;;18.38;11.52;;;;;;;6.34;56.96;98442.13;5013934;28;20092;-63
2021/04/07 01:34:29;;;;;;;24.88;13.15;;;;;;;6.90;56.86;98527.81;5014457;28;20041;-64
2021/04/07 01:36:59;;;;;;;18.85;12.80;;;;;;;6.89;56.39;98520.81;5029792;28;20037;-64
2021/04/07 01:39:26;;;;;;;20.50;12.77;;;;;;;6.95;56.13;98530.91;5014466;28;20452;-63
2021/04/07 01:41:52;;;;;;;17.42;12.30;;;;;;;7.03;55.44;98517.81;5014685;28;20042;-64
2021/04/07 01:44:21;;;;;;;16.60;12.02;;;;;;;7.06;55.58;98515.84;5013394;28;20042;-62
2021/04/07 01:46:48;;;;;;;20.95;13.00;;;;;;;7.12;55.23;98512.63;5013639;28;20540;-64
2021/04/07 01:49:14;;;;;;;20.33;13.15;;;;;;;7.16;55.36;98512.25;5014377;28;20074;-64
2021/04/07 01:51:41;;;;;;;20.73;13.00;;;;;;;7.17;54.91;98507.75;5014782;28;20034;-64
2021/04/07 01:54:08;;;;;;;18.95;12.93;;;;;;;7.21;54.94;98525.13;5013968;28;20034;-64
2021/04/07 01:56:57;;;;;;;18.90;12.90;;;;;;;7.30;54.66;98510.16;5014346;28;20046;-63
2021/04/07 01:59:25;;;;;;;19.80;12.98;;;;;;;6.95;54.42;98453.75;5014196;28;20120;-62
2021/04/07 02:01:53;;;;;;;20.98;13.15;;;;;;;7.37;53.96;98510.47;5014137;28;20034;-64
2021/04/07 02:04:19;;;;;;;22.27;12.90;;;;;;;7.42;54.14;98505.59;5013627;28;20447;-62
2021/04/07 02:06:45;;;;;;;21.15;14.05;;;;;;;7.51;53.73;98511.91;5010768;28;20056;-63
2021/04/07 02:09:12;;;;;;;19.38;13.90;;;;;;;7.47;53.84;98500.69;5011778;28;20124;-64
2021/04/07 02:11:42;;;;;;;20.25;13.35;;;;;;;7.53;53.88;98513.47;5011793;28;20060;-62
2021/04/07 02:14:09;;;;;;;18.20;13.90;;;;;;;7.53;53.47;98497.50;5011748;28;20029;-63
2021/04/07 02:16:35;;;;;;;20.02;14.13;;;;;;;7.55;53.06;98490.22;5011410;28;20120;-61
2021/04/07 02:19:02;;;;;;;22.83;14.23;;;;;;;7.55;52.72;98492.00;5012300;28;20515;-62
2021/04/07 02:21:28;;;;;;;21.20;14.00;;;;;;;7.51;52.73;98488.81;5011939;28;20136;-63
2021/04/07 02:23:53;;;;;;;23.15;13.85;;;;;;;7.49;52.75;98471.25;5012665;28;20038;-64
2021/04/07 02:26:19;;;;;;;25.75;14.52;;;;;;;7.69;52.54;98510.28;5013591;28;20083;-63
2021/04/07 02:28:44;;;;;;;24.17;14.52;;;;;;;7.58;52.38;98484.59;5013836;28;20569;-63
2021/04/07 02:31:10;;;;;;;23.05;14.88;;;;;;;7.67;52.64;98498.06;5013631;28;20046;-63
2021/04/07 02:33:35;;;;;;;19.75;13.43;;;;;;;7.52;52.26;98485.16;5014081;28;20485;-64
2021/04/07 02:36:01;;;;;;;22.77;14.13;;;;;;;7.68;52.26;98499.75;5012376;28;20033;-63
2021/04/07 02:38:26;;;;;;;20.52;13.48;;;;;;;7.67;52.29;98506.06;5013668;28;20445;-64
2021/04/07 02:40:52;;;;;;;20.08;14.23;;;;;;;7.68;52.32;98521.06;5013039;28;20497;-62
2021/04/07 02:43:17;;;;;;;23.27;14.30;;;;;;;7.70;51.93;98505.78;5012484;28;20041;-62
2021/04/07 02:45:43;;;;;;;25.85;15.15;;;;;;;7.78;51.54;98511.28;5012188;28;20034;-64
2021/04/07 02:48:08;;;;;;;24.30;14.07;;;;;;;7.73;51.50;98495.69;5012876;28;20112;-63
2021/04/07 02:50:34;;;;;;;25.40;13.98;;;;;;;7.78;51.94;98510.41;5013439;28;20038;-65
2021/04/07 02:52:59;;;;;;;22.98;15.23;;;;;;;7.81;51.56;98511.00;5013819;28;20039;-63
2021/04/07 02:55:25;;;;;;;27.00;15.10;;;;;;;7.85;51.70;98511.56;5013344;28;20040;-64
2021/04/07 02:57:51;;;;;;;24.08;14.48;;;;;;;7.88;51.79;98506.78;5012244;28;20069;-62
2021/04/07 03:00:17;;;;;;;21.58;13.77;;;;;;;7.97;51.15;98506.94;5013195;28;20072;-64
2021/04/07 03:02:42;;;;;;;26.23;15.15;;;;;;;7.91;51.51;98508.34;5013374;28;20134;-64
2021/04/07 03:05:08;;;;;;;22.10;14.43;;;;;;;7.89;51.45;98516.47;5012286;28;20033;-61
2021/04/07 03:07:41;;;;;;;21.67;14.27;;;;;;;7.58;51.16;98455.31;5009449;28;20096;-63
2021/04/07 03:10:08;;;;;;;23.02;15.00;;;;;;;7.90;51.21;98491.50;5009193;28;20041;-63
2021/04/07 03:12:34;;;;;;;20.52;14.77;;;;;;;7.92;50.95;98504.69;5010887;28;20125;-62
2021/04/07 03:14:59;;;;;;;24.15;14.07;;;;;;;7.80;51.05;98481.81;5010860;28;20134;-65
2021/04/07 03:17:25;;;;;;;24.27;16.10;;;;;;;7.88;51.00;98496.13;5010194;28;20390;-62
2021/04/07 03:19:50;;;;;;;24.83;14.43;;;;;;;7.88;51.22;98485.47;5010588;28;20033;-62
2021/04/07 03:22:16;;;;;;;21.13;15.25;;;;;;;7.91;50.75;98489.69;5008265;28;20061;-63
2021/04/07 03:24:41;;;;;;;25.38;15.57;;;;;;;7.86;50.83;98474.09;5010233;28;20493;-62
2021/04/07 03:27:07;;;;;;;25.13;15.25;;;;;;;7.97;50.80;98494.44;5010131;28;20058;-63
2021/04/07 03:29:32;;;;;;;29.05;15.05;;;;;;;7.99;50.98;98504.97;5009733;28;20041;-64
2021/04/07 03:31:58;;;;;;;22.33;15.00;;;;;;;7.98;50.97;98487.31;5010249;28;20498;-63
2021/04/07 03:34:23;;;;;;;21.52;14.52;;;;;;;8.05;50.70;98486.56;5010137;28;20140;-63
2021/04/07 03:36:49;;;;;;;22.80;14.98;;;;;;;7.97;50.76;98473.13;5009058;28;20132;-64
2021/04/07 03:39:14;;;;;;;23.77;14.95;;;;;;;8.03;50.79;98477.06;5008467;28;20486;-64
2021/04/07 03:41:39;;;;;;;23.98;15.43;;;;;;;8.13;50.68;98493.03;5010551;28;20029;-62
2021/04/07 03:44:05;;;;;;;26.50;15.23;;;;;;;8.11;50.61;98479.84;5009608;28;20457;-65
2021/04/07 03:46:31;;;;;;;24.08;15.73;;;;;;;8.08;50.75;98474.81;5009899;28;20030;-63
2021/04/07 03:48:56;;;;;;;25.38;15.65;;;;;;;8.09;50.51;98470.31;5009416;28;20665;-62
2021/04/07 03:51:21;;;;;;;26.27;16.55;;;;;;;8.03;50.69;98463.72;5009461;28;20509;-64
2021/04/07 03:53:48;;;;;;;28.10;16.67;;;;;;;8.16;50.59;98477.59;5007733;28;20490;-64
2021/04/07 03:56:13;;;;;;;29.92;16.40;;;;;;;8.24;50.45;98484.06;5009736;28;20080;-64
2021/04/07 03:58:39;;;;;;;20.50;15.02;;;;;;;8.22;50.43;98476.19;5009964;28;20470;-63
2021/04/07 04:01:05;;;;;;;25.17;15.85;;;;;;;8.27;50.56;98465.94;5011059;28;20038;-62
2021/04/07 04:03:31;;;;;;;23.73;15.82;;;;;;;8.35;50.21;98472.41;5010266;28;20034;-64
2021/04/07 04:05:56;;;;;;;22.88;15.50;;;;;;;8.22;50.40;98451.38;5011664;28;20065;-64
2021/04/07 04:08:22;;;;;;;24.23;15.55;;;;;;;8.00;50.24;98402.72;5010997;28;20121;-64
2021/04/07 04:10:47;;;;;;;21.88;16.10;;;;;;;8.28;50.07;98432.94;5008277;28;20071;-64
2021/04/07 04:13:13;;;;;;;20.60;15.20;;;;;;;8.24;50.10;98436.06;5009090;28;20238;-64
2021/04/07 04:15:38;;;;;;;20.58;14.90;;;;;;;8.50;49.68;98440.81;5009444;28;20061;-65
2021/04/07 04:18:08;;;;;;;29.00;16.45;;;;;;;8.75;49.68;98466.84;5009641;28;20045;-61
2021/04/07 04:20:34;;;;;;;19.90;14.88;;;;;;;8.76;49.20;98447.19;5008664;28;20770;-61
2021/04/07 04:23:00;;;;;;;24.27;16.00;;;;;;;8.50;49.12;98406.13;5009666;28;20041;-63
2021/04/07 04:25:25;;;;;;;29.45;17.27;;;;;;;8.54;49.16;98399.50;5009853;28;20500;-63
2021/04/07 04:27:51;;;;;;;26.00;16.17;;;;;;;9.10;48.79;98463.59;5011398;28;20120;-63
2021/04/07 04:30:20;;;;;;;25.58;16.75;;;;;;;9.11;48.64;98460.78;5011566;28;20544;-64
2021/04/07 04:32:46;;;;;;;24.63;15.90;;;;;;;9.17;48.78;98472.72;5010404;28;20057;-64
2021/04/07 04:35:12;;;;;;;25.20;16.35;;;;;;;8.34;48.66;98346.22;5009975;28;20101;-64
2021/04/07 04:37:39;;;;;;;31.20;17.77;;;;;;;9.02;48.91;98469.66;5011365;28;20054;-64
2021/04/07 04:40:06;;;;;;;34.13;17.77;;;;;;;9.00;48.99;98456.50;5026075;28;20056;-63
2021/04/07 04:42:31;;;;;;;28.50;17.02;;;;;;;8.06;49.02;98316.84;5010548;28;20041;-64
2021/04/07 04:44:57;;;;;;;32.88;17.60;;;;;;;9.00;48.93;98467.16;5009012;28;20048;-64
2021/04/07 04:47:22;;;;;;;29.80;17.23;;;;;;;8.90;49.12;98469.88;5011053;28;20103;-65
2021/04/07 04:49:49;;;;;;;28.90;17.65;;;;;;;8.90;49.54;98466.34;5011385;28;20124;-63
2021/04/07 04:52:14;;;;;;;26.75;17.27;;;;;;;8.88;49.52;98471.84;5011142;28;20034;-64
2021/04/07 04:54:40;;;;;;;21.65;16.42;;;;;;;8.86;49.36;98462.28;5007316;28;20045;-62
2021/04/07 04:57:07;;;;;;;30.92;17.38;;;;;;;8.95;49.53;98465.91;5001175;28;20042;-61
2021/04/07 04:59:32;;;;;;;27.20;17.35;;;;;;;8.99;49.40;98454.81;5011074;28;20176;-62
2021/04/07 05:01:57;;;;;;;28.55;16.98;;;;;;;9.01;49.45;98479.53;5010719;28;20091;-63
2021/04/07 05:04:23;;;;;;;27.90;17.00;;;;;;;9.07;49.21;98472.75;5010667;28;20041;-62
2021/04/07 05:06:48;;;;;;;25.95;17.60;;;;;;;9.15;49.17;98477.34;5009373;28;20045;-63
2021/04/07 05:09:14;;;;;;;34.40;17.85;;;;;;;9.18;49.21;98485.09;5010910;28;20096;-64
2021/04/07 05:11:39;;;;;;;29.38;17.33;;;;;;;9.20;49.02;98469.75;5010577;28;20029;-64
2021/04/07 05:14:05;;;;;;;29.70;18.63;;;;;;;9.08;49.10;98453.09;5010333;28;20382;-61
2021/04/07 05:16:33;;;;;;;35.42;17.83;;;;;;;8.89;48.91;98413.97;5010651;28;20052;-63
2021/04/07 05:18:59;;;;;;;33.40;17.90;;;;;;;9.32;48.76;98487.25;5008443;28;20044;-64
2021/04/07 05:21:24;;;;;;;30.50;17.75;;;;;;;9.40;48.99;98489.16;5009976;28;20042;-63
2021/04/07 05:23:50;;;;;;;34.45;18.33;;;;;;;9.48;48.76;98483.09;5010191;28;20066;-63
2021/04/07 05:26:15;;;;;;;26.75;16.85;;;;;;;9.52;48.63;98462.22;5010306;28;20117;-63
2021/04/07 05:28:41;;;;;;;32.03;18.23;;;;;;;9.65;48.50;98475.25;5010585;28;20057;-63
2021/04/07 05:31:08;;;;;;;29.42;18.33;;;;;;;9.73;48.42;98469.97;5010059;28;20080;-62
2021/04/07 05:33:36;;;;;;;31.98;19.00;;;;;;;9.87;47.67;98468.59;5005996;28;20040;-60
2021/04/07 05:36:08;;;;;;;27.02;18.95;;;;;;;10.02;47.60;98475.09;5007195;28;20034;-61
2021/04/07 05:38:34;;;;;;;29.40;18.42;;;;;;;10.10;47.17;98471.63;5006984;28;20057;-61
2021/04/07 05:41:01;;;;;;;31.10;17.80;;;;;;;10.16;47.22;98486.22;5007426;28;20196;-64
2021/04/07 05:43:28;;;;;;;31.75;18.45;;;;;;;10.20;46.85;98483.09;5007076;28;20030;-65
2021/04/07 05:45:53;;;;;;;29.67;18.77;;;;;;;10.20;47.09;98477.75;5005743;28;20231;-64
2021/04/07 05:48:19;;;;;;;28.88;18.65;;;;;;;10.26;46.85;98478.13;5006868;28;20033;-64
2021/04/07 05:50:50;;;;;;;30.25;17.77;;;;;;;10.24;46.77;98483.63;5009024;28;20092;-67
2021/04/07 05:53:17;;;;;;;26.70;18.63;;;;;;;10.18;46.93;98462.84;5008880;28;20033;-61
2021/04/07 05:56:01;;;;;;;31.98;17.98;;;;;;;10.05;46.58;98434.69;5009235;28;20044;-63
2021/04/07 05:58:28;;;;;;;24.95;17.55;;;;;;;10.42;46.75;98493.47;5008852;28;20349;-63
2021/04/07 06:00:54;;;;;;;30.35;18.10;;;;;;;10.41;46.57;98479.28;5008912;28;20044;-62
2021/04/07 06:03:19;;;;;;;29.67;19.10;;;;;;;10.43;46.98;98477.28;5010240;28;20030;-62
2021/04/07 06:05:48;;;;;;;28.38;17.92;;;;;;;10.54;47.00;98483.38;5010430;28;20041;-63
2021/04/07 06:08:15;;;;;;;26.38;18.42;;;;;;;10.62;46.40;98476.25;5008071;28;20041;-64
2021/04/07 06:10:42;;;;;;;31.67;18.77;;;;;;;10.66;46.65;98475.91;5010061;28;20091;-63
2021/04/07 06:13:09;;;;;;;28.42;18.65;;;;;;;10.51;46.63;98446.22;5010335;28;20037;-62
2021/04/07 06:15:37;;;;;;;28.98;18.92;;;;;;;10.72;46.59;98480.63;5010045;28;20125;-61
2021/04/07 06:18:05;;;;;;;26.05;19.48;;;;;;;10.65;46.48;98483.13;5011112;28;20092;-62
2021/04/07 06:20:50;;;;;;;29.83;19.52;;;;;;;10.64;47.05;98486.81;5013684;28;20458;-64
2021/04/07 06:23:17;;;;;;;27.42;18.00;;;;;;;10.69;46.70;98518.44;5012085;28;20037;-63
2021/04/07 06:25:45;;;;;;;27.50;18.30;;;;;;;10.52;47.23;98475.50;5013306;28;20034;-62
2021/04/07 06:28:13;;;;;;;30.23;19.13;;;;;;;10.59;47.39;98499.78;5009655;28;20054;-71
2021/04/07 06:33:20;;;;;;;25.42;18.05;;;;;;;10.62;47.44;98483.44;5011796;28;20033;-70
2021/04/07 06:35:51;;;;;;;29.08;17.98;;;;;;;10.47;47.30;98475.97;5011763;28;20508;-70
2021/04/07 06:38:18;;;;;;;28.00;18.50;;;;;;;10.62;47.51;98491.47;5013541;28;20530;-72
2021/04/07 06:40:44;;;;;;;21.58;17.27;;;;;;;10.69;47.30;98500.53;5012989;28;20030;-70
2021/04/07 06:43:11;;;;;;;30.42;18.20;;;;;;;10.71;47.55;98495.00;5012088;28;20084;-68
2021/04/07 06:45:38;;;;;;;26.20;18.52;;;;;;;10.79;47.38;98502.25;5013276;28;20036;-69
2021/04/07 06:48:05;;;;;;;22.85;17.92;;;;;;;10.88;47.57;98491.44;5009716;28;20046;-66
2021/04/07 06:50:31;;;;;;;27.15;19.05;;;;;;;11.06;47.17;98480.66;5010783;28;20044;-72
2021/04/07 06:52:59;;;;;;;22.80;17.90;;;;;;;11.29;46.34;98476.56;5010901;28;20037;-72
2021/04/07 06:55:27;;;;;;;30.48;18.00;;;;;;;11.85;45.45;98498.34;5011398;28;20033;-69
2021/04/07 06:57:54;;;;;;;25.60;17.95;;;;;;;12.47;44.06;98482.81;5010635;28;20064;-71
2021/04/07 07:00:20;;;;;;;27.70;17.80;;;;;;;13.18;42.61;98466.00;5012157;28;20030;-71
2021/04/07 07:02:45;;;;;;;27.40;18.10;;;;;;;13.77;41.35;98437.81;5012983;28;20048;-71
2021/04/07 07:05:11;;;;;;;21.90;18.15;;;;;;;14.62;40.00;98456.59;5005076;28;20026;-70
2021/04/07 07:07:37;;;;;;;26.80;18.60;;;;;;;15.17;38.84;98456.34;5011966;28;20045;-76
2021/04/07 07:10:03;;;;;;;27.70;18.90;;;;;;;15.52;37.75;98451.19;5012692;28;20033;-66
2021/04/07 07:12:31;;;;;;;29.75;17.55;;;;;;;16.04;36.63;98460.09;5011538;28;20037;-70
2021/04/07 07:15:03;;;;;;;26.75;17.45;;;;;;;16.67;34.79;98445.00;5011565;28;20485;-68
2021/04/07 07:17:34;;;;;;;22.27;17.00;;;;;;;17.85;33.21;98442.41;5012999;28;20088;-61
2021/04/07 07:20:00;;;;;;;25.95;17.35;;;;;;;19.34;31.18;98461.09;5003236;28;20490;-62
2021/04/07 07:22:28;;;;;;;27.88;17.63;;;;;;;20.35;29.32;98460.53;5003043;28;20037;-63
2021/04/07 07:24:59;;;;;;;22.50;16.08;;;;;;;21.32;27.02;98452.06;5011328;28;20041;-62
2021/04/07 07:27:35;;;;;;;23.33;17.65;;;;;;;22.20;26.48;98484.44;5008831;28;20089;-62
2021/04/07 07:30:01;;;;;;;24.65;16.90;;;;;;;21.97;25.96;98486.03;5012191;28;20141;-61
2021/04/07 07:32:35;;;;;;;25.60;18.05;;;;;;;20.97;27.14;98482.59;5011074;28;20121;-62
2021/04/07 07:35:06;;;;;;;22.55;16.40;;;;;;;20.23;27.69;98482.16;5012240;28;20041;-64
2021/04/07 07:37:32;;;;;;;19.17;15.95;;;;;;;21.04;27.29;98454.28;5006043;28;20041;-70
2021/04/07 07:39:57;;;;;;;28.23;17.20;;;;;;;22.31;25.26;98477.34;4994412;28;20038;-73
2021/04/07 07:42:23;;;;;;;25.35;17.85;;;;;;;21.85;25.53;98475.09;5010706;28;20026;-76
2021/04/07 07:44:49;;;;;;;22.48;17.35;;;;;;;20.89;26.58;98448.38;5010411;28;20037;-74
2021/04/07 07:47:21;;;;;;;24.50;17.95;;;;;;;20.57;27.11;98460.13;5012290;28;20088;-66
2021/04/07 07:50:01;;;;;;;25.40;17.95;;;;;;;20.62;26.93;98416.81;5011698;28;20076;-66
2021/04/07 07:52:28;;;;;;;22.63;17.92;;;;;;;21.30;25.95;98470.50;5011642;28;20104;-69
2021/04/07 07:54:54;;;;;;;25.10;17.25;;;;;;;21.74;24.96;98465.00;5012027;28;20432;-70
2021/04/07 07:57:20;;;;;;;20.85;16.38;;;;;;;21.85;24.67;98452.47;5006601;28;20042;-65
2021/04/07 07:59:45;;;;;;;24.05;17.00;;;;;;;22.01;24.65;98426.47;5010582;28;20025;-66
2021/04/07 08:02:15;;;;;;;22.60;17.15;;;;;;;22.39;23.58;98466.09;5010677;28;20057;-65
2021/04/07 08:04:47;;;;;;;22.95;15.73;;;;;;;21.88;24.43;98458.28;5010829;28;20038;-66
2021/04/07 08:07:17;;;;;;;27.08;16.27;;;;;;;21.13;25.07;98432.19;5010154;28;20037;-67
2021/04/07 08:09:43;;;;;;;21.63;15.88;;;;;;;20.79;25.70;98465.16;5009951;28;20559;-68
2021/04/07 08:12:10;;;;;;;27.63;15.15;;;;;;;20.36;26.08;98464.09;5010687;28;20038;-66
2021/04/07 08:14:40;;;;;;;22.20;14.18;;;;;;;20.02;25.80;98474.38;5010107;28;20029;-68
2021/04/07 08:17:06;;;;;;;30.48;14.02;;;;;;;19.37;26.54;98476.09;5009311;28;20056;-65
2021/04/07 08:19:34;;;;;;;22.40;13.45;;;;;;;18.75;27.30;98452.88;4994816;28;20026;-72
2021/04/07 08:22:02;;;;;;;21.75;13.80;;;;;;;18.25;28.16;98472.28;5007792;28;20448;-68
2021/04/07 08:24:31;;;;;;;20.55;13.63;;;;;;;17.47;28.67;98409.41;5010343;28;20497;-68
2021/04/07 08:27:08;;;;;;;16.70;13.10;;;;;;;17.34;29.54;98463.50;5009582;28;20061;-61
2021/04/07 08:29:36;;;;;;;19.75;13.20;;;;;;;16.80;30.27;98460.47;4996348;28;20457;-67
2021/04/07 08:32:01;;;;;;;19.35;14.10;;;;;;;16.61;30.78;98478.19;5008171;28;20085;-67
2021/04/07 08:34:27;;;;;;;19.13;13.48;;;;;;;16.86;30.63;98472.34;5001852;28;20429;-64
2021/04/07 08:36:56;;;;;;;19.20;12.88;;;;;;;17.12;30.21;98466.28;5010532;28;20049;-67
2021/04/07 08:39:24;;;;;;;19.33;12.52;;;;;;;17.05;29.84;98473.53;5003879;28;20405;-67
2021/04/07 08:41:49;;;;;;;15.90;12.23;;;;;;;16.80;30.06;98471.28;5009166;28;20033;-67
2021/04/07 08:44:20;;;;;;;18.15;11.23;;;;;;;16.47;30.50;98464.59;5008372;28;20417;-68
2021/04/07 08:46:51;;;;;;;16.98;11.27;;;;;;;16.56;30.50;98477.97;5009330;28;20124;-65
2021/04/07 08:49:36;;;;;;;18.25;11.32;;;;;;;16.71;30.61;98484.13;5010631;28;20096;-68
2021/04/07 08:52:18;;;;;;;18.88;10.63;;;;;;;16.45;30.39;98488.28;5010437;28;20030;-64
2021/04/07 08:54:57;;;;;;;14.98;10.05;;;;;;;16.12;30.63;98485.28;5010490;28;20044;-69
2021/04/07 08:57:34;;;;;;;14.90;9.55;;;;;;;15.90;30.79;98507.69;5006140;28;20096;-68
2021/04/07 09:00:02;;;;;;;14.60;8.77;;;;;;;15.44;31.21;98481.00;5010244;28;20030;-64
2021/04/07 09:02:29;;;;;;;11.05;7.82;;;;;;;14.83;31.46;98484.72;5009846;28;20104;-66
2021/04/07 09:05:05;;;;;;;13.93;8.23;;;;;;;14.28;32.51;98480.31;5010285;28;20040;-67
2021/04/07 09:07:41;;;;;;;13.40;8.40;;;;;;;14.17;33.02;98489.66;5010706;28;20386;-67
2021/04/07 09:10:16;;;;;;;15.77;8.18;;;;;;;13.98;33.11;98463.22;5010176;28;20025;-72
2021/04/07 09:12:43;;;;;;;15.27;8.55;;;;;;;13.97;33.17;98481.22;5009800;28;20030;-69
2021/04/07 09:15:22;;;;;;;13.90;7.53;;;;;;;14.04;33.34;98503.69;5009302;28;20038;-66
2021/04/07 09:17:56;;;;;;;11.95;7.28;;;;;;;14.09;32.86;98478.94;5008702;28;20037;-70
2021/04/07 09:20:38;;;;;;;12.35;7.35;;;;;;;14.13;32.71;98471.38;5010153;28;20087;-67
2021/04/07 09:23:21;;;;;;;11.98;6.97;;;;;;;14.09;32.85;98478.09;5021736;28;20038;-65
2021/04/07 09:26:10;;;;;;;12.95;7.00;;;;;;;13.86;32.65;98400.91;5008271;28;20106;-65
2021/04/07 09:28:41;;;;;;;11.85;7.05;;;;;;;14.68;31.75;98445.09;5002202;28;20057;-68
2021/04/07 09:31:13;;;;;;;16.60;7.40;;;;;;;15.03;31.19;98450.81;5009931;28;20104;-68
2021/04/07 09:33:42;;;;;;;15.50;7.78;;;;;;;15.35;30.48;98437.13;5010305;28;20022;-67
2021/04/07 09:36:08;;;;;;;14.90;7.53;;;;;;;15.90;29.82;98442.91;5009811;28;20069;-66
2021/04/07 09:38:37;;;;;;;10.20;7.32;;;;;;;16.44;29.12;98447.94;5009694;28;20410;-67
2021/04/07 09:41:08;;;;;;;11.02;7.40;;;;;;;16.82;28.44;98473.78;5010205;28;20037;-70
2021/04/07 09:43:35;;;;;;;9.35;6.75;;;;;;;16.57;28.08;98431.00;5010073;28;20068;-67
2021/04/07 09:46:02;;;;;;;12.75;6.60;;;;;;;16.46;28.36;98425.13;5008279;28;20038;-71
2021/04/07 09:48:38;;;;;;;9.32;6.50;;;;;;;16.16;28.86;98433.41;5009977;28;20497;-68
2021/04/07 09:51:39;;;;;;;12.88;6.53;;;;;;;16.02;28.81;98410.00;5009328;28;20033;-72
2021/04/07 09:54:20;;;;;;;9.38;6.22;;;;;;;15.61;29.11;98412.28;5007414;28;20038;-61
2021/04/07 09:56:49;;;;;;;9.60;7.10;;;;;;;15.41;29.65;98400.44;5011312;28;20117;-70
2021/04/07 09:59:16;;;;;;;13.05;8.20;;;;;;;15.26;30.36;98403.19;5013463;28;20065;-68
2021/04/07 10:01:41;;;;;;;16.35;9.63;;;;;;;15.05;31.17;98405.63;5013557;28;20030;-69
2021/04/07 10:04:08;;;;;;;17.45;8.48;;;;;;;14.98;31.24;98409.25;5012547;28;20080;-69
2021/04/07 10:06:34;;;;;;;13.68;8.45;;;;;;;14.97;31.18;98403.06;5013678;28;20413;-70
2021/04/07 10:09:10;;;;;;;12.50;7.60;;;;;;;14.99;29.97;98398.31;5013959;28;20060;-68
2021/04/07 10:11:40;;;;;;;;;;;;;;;15.25;29.86;98418.53;5013221;28;20030;-70
2021/04/07 10:14:07;;;;;;;11.38;7.68;;;;;;;15.18;29.77;98412.19;5013380;28;20488;-65
2021/04/07 10:16:38;;;;;;;12.07;7.70;;;;;;;15.12;29.74;98383.31;5013475;28;20512;-70
2021/04/07 10:19:09;;;;;;;14.23;8.85;;;;;;;15.19;29.68;98409.34;5025287;28;20040;-65
2021/04/07 10:21:37;;;;;;;10.07;7.70;;;;;;;15.27;29.69;98405.69;4990414;28;20045;-69
2021/04/07 10:24:04;;;;;;;11.40;7.13;;;;;;;15.21;29.58;98398.38;5007523;28;20092;-64
2021/04/07 10:26:30;;;;;;;13.88;7.57;;;;;;;15.02;29.38;98370.97;5013217;28;20021;-71
2021/04/07 10:28:58;;;;;;;11.85;7.85;;;;;;;15.21;29.25;98387.59;5012090;28;20140;-74
2021/04/07 10:31:24;;;;;;;14.48;7.75;;;;;;;15.33;29.45;98377.97;5012597;28;20502;-67
2021/04/07 10:34:02;;;;;;;11.27;7.45;;;;;;;15.49;29.45;98381.47;5012416;28;20042;-69
2021/04/07 10:36:28;;;;;;;13.70;7.65;;;;;;;15.54;28.94;98372.78;5012969;28;20050;-68
2021/04/07 10:38:54;;;;;;;13.23;7.53;;;;;;;15.42;28.58;98348.16;5012932;28;20050;-64
2021/04/07 10:41:19;;;;;;;12.25;7.63;;;;;;;15.58;28.54;98366.81;5005841;28;20049;-63
2021/04/07 10:43:44;;;;;;;13.23;8.00;;;;;;;15.59;28.35;98332.59;5010279;28;20022;-62
2021/04/07 10:46:10;;;;;;;11.52;8.18;;;;;;;15.82;28.27;98383.63;5026534;28;20065;-64
2021/04/07 10:48:37;;;;;;;12.13;7.75;;;;;;;15.90;28.17;98370.03;5012477;28;20410;-66
2021/04/07 10:51:03;;;;;;;11.65;7.50;;;;;;;15.89;28.03;98329.75;5013340;28;20477;-65
2021/04/07 10:53:32;;;;;;;12.02;7.57;;;;;;;16.05;27.98;98361.88;5012421;28;20076;-63
2021/04/07 10:56:00;;;;;;;15.52;8.32;;;;;;;15.91;28.13;98358.22;5008270;28;20132;-64
2021/04/07 10:58:27;;;;;;;10.20;7.38;;;;;;;15.83;28.17;98384.50;5005264;28;20038;-65
2021/04/07 11:00:53;;;;;;;13.18;7.28;;;;;;;15.68;28.28;98357.56;5012441;28;20052;-62
2021/04/07 11:03:32;;;;;;;12.70;7.90;;;;;;;15.64;28.73;98357.13;5009541;28;20077;-64
2021/04/07 11:05:58;;;;;;;9.27;7.05;;;;;;;15.57;28.78;98361.63;5012188;28;20041;-65
2021/04/07 11:08:38;;;;;;;13.20;7.57;;;;;;;15.65;28.94;98348.00;5012094;28;20034;-64
2021/04/07 11:11:07;;;;;;;21.60;8.35;;;;;;;15.59;28.76;98355.00;5012148;28;20038;-63
2021/04/07 11:13:34;;;;;;;10.82;8.60;;;;;;;15.49;29.26;98351.78;5008974;28;20033;-63
2021/04/07 11:16:07;;;;;;;13.02;8.10;;;;;;;15.35;29.34;98346.25;5012003;28;20494;-65
2021/04/07 11:18:32;;;;;;;12.63;8.85;;;;;;;15.20;29.55;98348.19;5011852;28;20383;-63
2021/04/07 11:20:58;;;;;;;11.52;8.32;;;;;;;14.69;30.04;98290.53;5012131;28;20042;-66
2021/04/07 11:23:23;;;;;;;9.75;8.70;;;;;;;14.92;30.30;98327.31;5011780;28;20125;-64
2021/04/07 11:25:51;;;;;;;13.60;9.23;;;;;;;14.92;30.55;98332.69;5012351;28;20022;-65
2021/04/07 11:28:19;;;;;;;16.83;9.43;;;;;;;14.90;30.35;98313.19;5011146;28;20054;-65
2021/04/07 11:31:50;;;;;;;15.73;10.30;;;;;;;15.07;30.71;98354.22;5010042;28;20046;-60